Weather History for Saginaw Browne, MI

Change the Weather History Date:

Thursday, February 14, 2013

  Actual Average (KMBS) Record (KMBS)
Temperature  
Mean Temperature 36 °F 24 °F  
Max Temperature 39 °F 31 °F 46 °F (2005)
Min Temperature 32 °F 17 °F 1 °F (2003)
Degree Days  
Heating Degree Days 30    
Month to date heating degree days  
Since 1 July heating degree days  
Cooling Degree Days 0    
Month to date cooling degree days  
Year to date cooling degree days  
Moisture  
Dew Point 31 °F    
Average Humidity 91    
Maximum Humidity 100    
Minimum Humidity 75    
Precipitation  
Precipitation 0.00 in 0.05 in 0.44 in (2005)
Month to date precipitation 0.68  
Year to date precipitation 2.39  
Snow  
Snow 0.00 in - - ()
Month to date snowfall  
Since 1 July snowfall  
Snow Depth -    
Sea Level Pressure  
Sea Level Pressure 29.68 in    
Wind  
Wind Speed 9 mph (SSW)    
Max Wind Speed 21 mph    
Max Gust Speed 30 mph    
Visibility 6 miles    
Events Snow    
T = Trace of Precipitation, MM = Missing Value Source: NWS Daily Summary

Daily Weather History Graph

Daily Weather History Graph

Search for Another Location

Airport:

Trip Planner

Search our weather history database for the weather conditions in past years. The results will help you decide how hot, cold, wet, or windy it might be!

Date:

Astronomy

Feb. 14, 2013 Rise Set
Actual Time 7:34 AM EST 6:05 PM EST
Civil Twilight 7:05 AM EST 6:34 PM EST
Nautical Twilight 6:31 AM EST 7:08 PM EST
Astronomical Twilight 5:58 AM EST 7:41 PM EST
Moon 9:26 AM EST (2/14) 11:18 PM EST (2/14)
Length of Visible Light 11h 29m
Length of Day
10h 30m
Waxing Crescent, 21% of the Moon is Illuminated
Feb 14
Waxing Crescent
Feb 17
First Quarter
Feb 25
Full
Mar 4
Last Quarter
Mar 11
New

Hourly Weather History & Observations

Time (EST) Temp. Windchill Dew Point Humidity Pressure Visibility Wind Dir Wind Speed Gust Speed Precip Events Conditions
12:12 AM 32.0 °F 26.4 °F 28.4 °F 87% 29.72 in 7.0 mi South 5.8 mph - N/A   Overcast
12:32 AM 32.0 °F 25.6 °F 28.4 °F 87% 29.73 in 7.0 mi South 6.9 mph - N/A   Overcast
12:52 AM 32.0 °F 27.5 °F 28.4 °F 87% 29.72 in 7.0 mi South 4.6 mph - N/A   Overcast
1:12 AM 32.0 °F 26.4 °F 28.4 °F 87% 29.72 in 7.0 mi South 5.8 mph - N/A   Overcast
1:32 AM 32.0 °F 27.5 °F 28.4 °F 87% 29.72 in 7.0 mi South 4.6 mph - N/A   Overcast
1:52 AM 32.0 °F 27.5 °F 28.4 °F 87% 29.71 in 7.0 mi South 4.6 mph - N/A   Overcast
2:13 AM 32.0 °F 27.5 °F 30.2 °F 93% 29.71 in 7.0 mi South 4.6 mph - N/A   Overcast
2:33 AM 32.0 °F 27.5 °F 28.4 °F 87% 29.71 in 7.0 mi South 4.6 mph - N/A   Overcast
2:53 AM 32.0 °F 28.7 °F 28.4 °F 87% 29.72 in 7.0 mi South 3.5 mph - N/A   Overcast
3:13 AM 32.0 °F 24.8 °F 28.4 °F 87% 29.72 in 7.0 mi SSW 8.1 mph - N/A   Scattered Clouds
3:33 AM 32.0 °F 25.6 °F 28.4 °F 87% 29.71 in 7.0 mi SSW 6.9 mph - N/A   Clear
3:53 AM 32.0 °F 26.4 °F 28.4 °F 87% 29.71 in 7.0 mi SW 5.8 mph - N/A   Clear
4:10 AM 32.0 °F 25.6 °F 28.4 °F 87% 29.71 in 7.0 mi SSW 6.9 mph - N/A   Scattered Clouds
4:31 AM 32.0 °F 26.4 °F 28.4 °F 87% 29.71 in 7.0 mi SSW 5.8 mph - N/A   Mostly Cloudy
4:51 AM 32.0 °F 26.4 °F 28.4 °F 87% 29.71 in 7.0 mi SSW 5.8 mph - N/A   Overcast
5:11 AM 32.0 °F 26.4 °F 28.4 °F 87% 29.71 in 7.0 mi SSW 5.8 mph - N/A   Overcast
5:31 AM 32.0 °F 27.5 °F 28.4 °F 87% 29.71 in 7.0 mi South 4.6 mph - N/A   Overcast
5:51 AM 32.0 °F 26.4 °F 30.2 °F 93% 29.71 in 5.0 mi South 5.8 mph - N/A   Overcast
6:11 AM 32.0 °F 24.8 °F 30.2 °F 93% 29.71 in 7.0 mi SSW 8.1 mph - N/A   Overcast
6:31 AM 32.0 °F 24.8 °F 28.4 °F 87% 29.71 in 5.0 mi South 8.1 mph - N/A   Mostly Cloudy
6:51 AM 32.0 °F 25.6 °F 30.2 °F 93% 29.70 in 5.0 mi South 6.9 mph - N/A   Overcast
7:12 AM 32.0 °F 26.4 °F 30.2 °F 93% 29.70 in 5.0 mi South 5.8 mph - N/A   Overcast
7:32 AM 32.0 °F 25.6 °F 30.2 °F 93% 29.71 in 5.0 mi South 6.9 mph - N/A   Overcast
7:52 AM 32.0 °F 25.6 °F 30.2 °F 93% 29.71 in 4.0 mi South 6.9 mph - N/A   Overcast
8:12 AM 32.0 °F 25.6 °F 30.2 °F 93% 29.71 in 4.0 mi South 6.9 mph - N/A   Overcast
8:32 AM 32.0 °F 25.6 °F 30.2 °F 93% 29.71 in 4.0 mi South 6.9 mph - N/A   Overcast
8:52 AM 32.0 °F 24.8 °F 32.0 °F 100% 29.71 in 4.0 mi South 8.1 mph - N/A   Overcast
9:12 AM 32.0 °F 24.8 °F 32.0 °F 100% 29.71 in 4.0 mi South 8.1 mph - N/A   Overcast
9:33 AM 32.0 °F 25.6 °F 32.0 °F 100% 29.71 in 2.5 mi South 6.9 mph - N/A Snow Light Snow
9:53 AM 32.0 °F 26.4 °F 32.0 °F 100% 29.71 in 1.8 mi South 5.8 mph - N/A Snow Light Snow
10:13 AM 32.0 °F 26.4 °F 32.0 °F 100% 29.70 in 1.5 mi SSE 5.8 mph - N/A Snow Light Snow
10:33 AM 32.0 °F 25.6 °F 32.0 °F 100% 29.69 in 0.8 mi SSE 6.9 mph - N/A Snow Light Snow
10:53 AM 32.0 °F 24.8 °F 32.0 °F 100% 29.68 in 1.2 mi SSE 8.1 mph - N/A Snow Light Snow
11:13 AM 32.0 °F 23.6 °F 32.0 °F 100% 29.66 in 1.5 mi SE 10.4 mph - N/A   Overcast
11:33 AM 33.8 °F 25.8 °F 33.8 °F 100% 29.65 in 2.0 mi SSE 10.4 mph - N/A   Overcast
11:53 AM 33.8 °F 25.8 °F 33.8 °F 100% 29.64 in 2.5 mi SSE 10.4 mph - N/A   Overcast
12:13 PM 33.8 °F 26.4 °F 33.8 °F 100% 29.63 in 2.5 mi SSE 9.2 mph - N/A   Overcast
12:33 PM 35.6 °F 28.0 °F 35.6 °F 100% 29.62 in 4.0 mi South 10.4 mph - N/A   Overcast
12:53 PM 37.4 °F 30.3 °F 35.6 °F 93% 29.62 in 5.0 mi South 10.4 mph - N/A   Overcast
1:13 PM 37.4 °F 30.8 °F 35.6 °F 93% 29.62 in 7.0 mi South 9.2 mph - N/A   Overcast
1:33 PM 39.2 °F 32.0 °F 33.8 °F 81% 29.61 in 10.0 mi South 11.5 mph 18.4 mph N/A   Overcast
1:53 PM 39.2 °F 32.0 °F 33.8 °F 81% 29.61 in 10.0 mi South 11.5 mph - N/A   Overcast
2:14 PM 39.2 °F 31.2 °F 32.0 °F 75% 29.61 in 10.0 mi SSW 13.8 mph - N/A   Overcast
2:34 PM 39.2 °F 30.8 °F 32.0 °F 75% 29.61 in 10.0 mi SSW 15.0 mph - N/A   Overcast
2:54 PM 39.2 °F 30.8 °F 32.0 °F 75% 29.60 in 10.0 mi SSW 15.0 mph - N/A   Overcast
3:14 PM 37.4 °F 29.3 °F 32.0 °F 81% 29.60 in 10.0 mi SSW 12.7 mph 20.7 mph N/A   Overcast
3:34 PM 37.4 °F 28.5 °F 32.0 °F 81% 29.61 in 10.0 mi SW 15.0 mph - N/A   Overcast
3:54 PM 37.4 °F 28.9 °F 32.0 °F 81% 29.61 in 10.0 mi SW 13.8 mph - N/A   Overcast
4:14 PM 37.4 °F 29.3 °F 32.0 °F 81% 29.61 in 7.0 mi SW 12.7 mph - N/A   Overcast
4:34 PM 37.4 °F 29.8 °F 32.0 °F 81% 29.62 in 10.0 mi SW 11.5 mph 20.7 mph N/A   Overcast
4:55 PM 37.4 °F 28.2 °F 32.0 °F 81% 29.62 in 10.0 mi SW 16.1 mph - N/A   Overcast
5:15 PM 35.6 °F 26.6 °F 32.0 °F 87% 29.62 in 10.0 mi SW 13.8 mph 19.6 mph N/A   Overcast
5:35 PM 35.6 °F 25.5 °F 32.0 °F 87% 29.62 in 10.0 mi SW 17.3 mph 20.7 mph N/A   Light Drizzle
5:55 PM 35.6 °F 25.9 °F 32.0 °F 87% 29.62 in 7.0 mi SW 16.1 mph 23.0 mph N/A   Light Drizzle
6:15 PM 35.6 °F 25.5 °F 32.0 °F 87% 29.63 in 10.0 mi SW 17.3 mph 23.0 mph N/A   Drizzle
6:35 PM 35.6 °F 26.2 °F 32.0 °F 87% 29.63 in 10.0 mi SW 15.0 mph - N/A   Light Drizzle
6:55 PM 35.6 °F 26.2 °F 32.0 °F 87% 29.64 in 10.0 mi SW 15.0 mph 25.3 mph N/A   Overcast
7:15 PM 33.8 °F 23.2 °F 32.0 °F 93% 29.65 in 7.0 mi WSW 17.3 mph 24.2 mph N/A   Light Drizzle
7:35 PM 33.8 °F 23.9 °F 33.8 °F 100% 29.65 in 5.0 mi SW 15.0 mph 20.7 mph N/A Snow Light Snow
7:55 PM 33.8 °F 23.5 °F 33.8 °F 100% 29.66 in 7.0 mi WSW 16.1 mph 20.7 mph N/A Snow Light Snow
8:15 PM 33.8 °F 24.3 °F 33.8 °F 100% 29.66 in 5.0 mi WSW 13.8 mph - N/A   Overcast
8:35 PM 33.8 °F 23.5 °F 33.8 °F 100% 29.67 in 7.0 mi WSW 16.1 mph 19.6 mph N/A   Overcast
8:55 PM 33.8 °F 24.3 °F 33.8 °F 100% 29.67 in 7.0 mi WSW 13.8 mph 21.9 mph N/A   Overcast
9:10 PM 33.8 °F 24.8 °F 32.0 °F 93% 29.68 in 10.0 mi WSW 12.7 mph 19.6 mph N/A   Overcast
9:31 PM 33.8 °F 23.9 °F 33.8 °F 100% 29.69 in 7.0 mi West 15.0 mph 21.9 mph N/A   Overcast
9:51 PM 33.8 °F 22.5 °F 33.8 °F 100% 29.70 in 5.0 mi West 19.6 mph 25.3 mph N/A Snow Light Snow
10:11 PM 32.0 °F 19.8 °F 32.0 °F 100% 29.72 in 2.0 mi West 20.7 mph 29.9 mph N/A Snow Light Snow
10:31 PM 32.0 °F 19.8 °F 32.0 °F 100% 29.74 in 2.0 mi WNW 20.7 mph 28.8 mph N/A Snow Light Snow
10:51 PM 32.0 °F 19.8 °F 32.0 °F 100% 29.76 in 2.5 mi WNW 20.7 mph 27.6 mph N/A Snow Light Snow
11:11 PM 32.0 °F 21.2 °F 32.0 °F 100% 29.77 in 3.0 mi WNW 16.1 mph 23.0 mph N/A Snow Light Snow
11:31 PM 32.0 °F 20.5 °F 30.2 °F 93% 29.79 in 4.0 mi West 18.4 mph 24.2 mph N/A Snow Light Snow
11:51 PM 32.0 °F 20.1 °F 28.4 °F 87% 29.80 in 7.0 mi WNW 19.6 mph 23.0 mph N/A Snow Light Snow